createdAt,value
2023-05-10T00:01:11.063Z,23.60
2023-05-10T00:03:37.740Z,22.13
2023-05-10T00:06:04.452Z,20.64
2023-05-10T00:08:31.138Z,19.45
2023-05-10T00:10:57.801Z,20.57
2023-05-10T00:13:24.568Z,20.18
2023-05-10T00:15:51.617Z,19.41
2023-05-10T00:18:18.188Z,21.05
2023-05-10T00:20:46.906Z,20.84
2023-05-10T00:23:13.587Z,20.75
2023-05-10T00:25:40.182Z,19.63
2023-05-10T00:28:06.780Z,19.97
2023-05-10T00:30:33.477Z,18.08
2023-05-10T00:33:02.083Z,17.31
2023-05-10T00:35:28.850Z,17.88
2023-05-10T00:37:55.462Z,18.15
2023-05-10T00:40:22.162Z,18.15
2023-05-10T00:42:53.506Z,18.69
2023-05-10T00:45:20.261Z,16.82
2023-05-10T00:47:47.193Z,16.84
2023-05-10T00:50:28.055Z,17.48
2023-05-10T00:52:55.342Z,17.90
2023-05-10T00:55:22.842Z,18.30
2023-05-10T00:57:49.650Z,17.99
2023-05-10T01:00:19.773Z,18.02
2023-05-10T01:02:47.433Z,18.65
2023-05-10T01:05:14.533Z,19.07
2023-05-10T01:07:42.005Z,18.98
2023-05-10T01:10:09.800Z,20.58
2023-05-10T01:12:41.810Z,17.77
2023-05-10T01:15:09.984Z,20.02
2023-05-10T01:17:39.279Z,20.92
2023-05-10T01:20:08.936Z,20.82
2023-05-10T01:22:44.474Z,20.35
2023-05-10T01:25:18.067Z,18.85
2023-05-10T01:27:50.946Z,19.93
2023-05-10T01:30:22.355Z,21.28
2023-05-10T01:32:55.546Z,22.12
2023-05-10T01:35:22.141Z,22.23
2023-05-10T01:38:00.557Z,23.76
2023-05-10T01:40:31.968Z,23.15
2023-05-10T01:43:04.017Z,23.90
2023-05-10T01:45:36.950Z,24.29
2023-05-10T01:48:11.301Z,24.22
2023-05-10T01:50:40.894Z,25.27
2023-05-10T01:53:09.199Z,24.08
2023-05-10T01:55:41.058Z,23.91
2023-05-10T01:58:10.593Z,23.96
2023-05-10T02:00:41.291Z,22.55
2023-05-10T02:03:11.322Z,22.52
2023-05-10T02:05:39.136Z,23.05
2023-05-10T02:08:10.645Z,23.03
2023-05-10T02:10:38.614Z,23.33
2023-05-10T02:13:07.768Z,23.41
2023-05-10T02:15:37.878Z,22.72
2023-05-10T02:18:06.896Z,23.29
2023-05-10T02:20:35.881Z,24.71
2023-05-10T02:23:04.569Z,24.46
2023-05-10T02:25:33.032Z,26.08
2023-05-10T02:28:02.682Z,25.66
2023-05-10T02:30:32.217Z,25.45
2023-05-10T02:33:00.053Z,27.92
2023-05-10T02:35:27.237Z,27.50
2023-05-10T02:37:55.271Z,27.67
2023-05-10T02:40:25.143Z,28.85
2023-05-10T02:42:55.795Z,29.55
2023-05-10T02:45:24.911Z,28.83
2023-05-10T02:47:51.771Z,30.66
2023-05-10T02:50:19.430Z,30.40
2023-05-10T02:52:54.613Z,32.45
2023-05-10T02:55:26.332Z,31.56
2023-05-10T02:57:57.327Z,32.51
2023-05-10T03:00:25.104Z,34.30
2023-05-10T03:02:52.081Z,34.36
2023-05-10T03:05:19.593Z,30.68
2023-05-10T03:07:46.812Z,30.34
2023-05-10T03:10:14.424Z,28.73
2023-05-10T03:13:03.604Z,30.17
2023-05-10T03:15:48.706Z,30.55
2023-05-10T03:18:22.812Z,29.31
2023-05-10T03:20:58.787Z,28.57
2023-05-10T03:23:35.833Z,29.29
2023-05-10T03:26:03.770Z,30.05
2023-05-10T03:28:32.569Z,28.02
2023-05-10T03:31:00.538Z,31.36
2023-05-10T03:33:27.728Z,29.10
2023-05-10T03:35:54.412Z,27.48
2023-05-10T03:38:21.094Z,29.72
2023-05-10T03:40:47.847Z,29.60
2023-05-10T03:43:14.461Z,30.10
2023-05-10T03:45:41.135Z,30.79
2023-05-10T03:48:07.868Z,31.69
2023-05-10T03:50:34.476Z,31.57
2023-05-10T03:53:01.115Z,31.42
2023-05-10T03:55:29.134Z,31.10
2023-05-10T03:57:56.036Z,31.60
2023-05-10T04:00:23.336Z,30.57
2023-05-10T04:02:53.707Z,30.02
2023-05-10T04:05:20.694Z,30.97
2023-05-10T04:07:48.058Z,32.11
2023-05-10T04:10:15.013Z,32.73
2023-05-10T04:12:42.003Z,32.36
2023-05-10T04:15:09.138Z,31.68
2023-05-10T04:17:35.860Z,30.49
2023-05-10T04:20:02.877Z,30.45
2023-05-10T04:22:30.039Z,30.81
2023-05-10T04:24:56.640Z,32.73
2023-05-10T04:27:23.251Z,32.17
2023-05-10T04:29:49.897Z,35.03
2023-05-10T04:32:18.250Z,35.00
2023-05-10T04:34:47.334Z,34.69
2023-05-10T04:37:14.005Z,33.74
2023-05-10T04:39:42.274Z,34.92
2023-05-10T04:42:09.479Z,35.84
2023-05-10T04:44:36.461Z,35.69
2023-05-10T04:47:04.077Z,34.84
2023-05-10T04:49:30.958Z,34.42
2023-05-10T04:51:57.612Z,34.22
2023-05-10T04:54:24.530Z,32.93
2023-05-10T04:56:51.203Z,33.30
2023-05-10T04:59:18.103Z,31.99
2023-05-10T05:01:44.855Z,33.22
2023-05-10T05:04:12.362Z,30.60
2023-05-10T05:06:38.964Z,32.81
2023-05-10T05:09:05.592Z,33.23
2023-05-10T05:11:32.273Z,33.58
2023-05-10T05:14:00.182Z,31.44
2023-05-10T05:16:27.730Z,31.43
2023-05-10T05:18:54.455Z,31.18
2023-05-10T05:21:21.240Z,32.41
2023-05-10T05:23:48.481Z,32.53
2023-05-10T05:26:15.936Z,31.96
2023-05-10T05:28:42.846Z,31.34
2023-05-10T05:31:10.046Z,31.50
2023-05-10T05:33:37.217Z,32.06
2023-05-10T05:36:04.447Z,32.23
2023-05-10T05:38:31.141Z,29.56
2023-05-10T05:40:57.979Z,29.53
2023-05-10T05:43:24.660Z,28.88
2023-05-10T05:45:52.853Z,30.55
2023-05-10T05:48:20.484Z,30.13
2023-05-10T05:50:47.554Z,28.03
2023-05-10T05:53:14.250Z,29.79
2023-05-10T05:55:41.053Z,27.94
2023-05-10T05:58:07.687Z,26.98
2023-05-10T06:00:34.330Z,27.60
2023-05-10T06:03:01.105Z,29.40
2023-05-10T06:05:27.947Z,28.20
2023-05-10T06:08:12.796Z,28.40
2023-05-10T06:10:39.360Z,28.79
2023-05-10T06:13:06.104Z,28.72
2023-05-10T06:15:33.618Z,29.68
2023-05-10T06:18:00.708Z,30.06
2023-05-10T06:20:27.600Z,28.24
2023-05-10T06:22:54.224Z,29.46
2023-05-10T06:25:20.859Z,28.08
2023-05-10T06:27:51.787Z,27.43
2023-05-10T06:30:20.367Z,28.77
2023-05-10T06:32:46.988Z,27.27
2023-05-10T06:35:13.775Z,28.74
2023-05-10T06:37:40.609Z,28.82
2023-05-10T06:40:07.706Z,28.53
2023-05-10T06:42:34.256Z,28.60
2023-05-10T06:45:00.975Z,28.54
2023-05-10T06:47:27.521Z,27.87
2023-05-10T06:49:54.577Z,27.75
2023-05-10T06:52:21.128Z,25.64
2023-05-10T06:54:47.822Z,25.75
2023-05-10T06:57:27.417Z,24.23
2023-05-10T06:59:57.241Z,25.40
2023-05-10T07:02:29.942Z,27.81
2023-05-10T07:04:56.811Z,27.86
2023-05-10T07:07:24.161Z,25.97
2023-05-10T07:09:51.056Z,26.91
2023-05-10T07:12:18.344Z,26.95
2023-05-10T07:14:45.029Z,27.00
2023-05-10T07:17:11.631Z,27.88
2023-05-10T07:19:38.213Z,26.17
2023-05-10T07:22:04.799Z,26.19
2023-05-10T07:24:32.477Z,26.12
2023-05-10T07:26:59.083Z,26.59
2023-05-10T07:29:25.737Z,26.12
2023-05-10T07:31:52.349Z,25.70
2023-05-10T07:34:19.168Z,25.25
2023-05-10T07:36:46.785Z,24.34
2023-05-10T07:39:21.201Z,24.76
2023-05-10T07:41:51.460Z,24.57
2023-05-10T07:44:20.079Z,23.52
2023-05-10T07:46:47.105Z,22.76
2023-05-10T07:49:13.655Z,24.93
2023-05-10T07:51:40.227Z,25.38
2023-05-10T07:54:06.997Z,23.49
2023-05-10T07:56:33.887Z,23.18
2023-05-10T07:59:01.192Z,23.65
2023-05-10T08:01:36.146Z,24.37
2023-05-10T08:04:03.187Z,25.50
2023-05-10T08:06:31.057Z,25.93
2023-05-10T08:08:58.116Z,25.87
2023-05-10T08:11:24.696Z,27.30
2023-05-10T08:13:52.180Z,29.28
2023-05-10T08:16:18.841Z,30.80
2023-05-10T08:18:47.678Z,31.60
2023-05-10T08:21:14.710Z,30.40
2023-05-10T08:23:41.724Z,29.60
2023-05-10T08:26:08.300Z,29.90
2023-05-10T08:28:34.963Z,28.71
2023-05-10T08:31:01.585Z,29.57
2023-05-10T08:33:28.176Z,29.51
2023-05-10T08:35:54.689Z,30.51
2023-05-10T08:38:21.334Z,29.77
2023-05-10T08:40:50.370Z,28.93
2023-05-10T08:43:16.956Z,28.98
2023-05-10T08:45:48.085Z,28.12
2023-05-10T08:48:16.296Z,26.11
2023-05-10T08:50:43.985Z,26.29
2023-05-10T08:53:12.244Z,26.22
2023-05-10T08:55:39.798Z,24.91
2023-05-10T08:58:07.162Z,26.28
2023-05-10T09:00:34.041Z,26.70
2023-05-10T09:03:01.474Z,27.37
2023-05-10T09:05:28.359Z,26.87
2023-05-10T09:07:55.271Z,26.60
2023-05-10T09:10:22.627Z,26.59
2023-05-10T09:12:49.681Z,27.50
2023-05-10T09:15:17.395Z,26.23
2023-05-10T09:17:45.417Z,25.10
2023-05-10T09:20:12.060Z,24.56
2023-05-10T09:22:39.243Z,24.93
2023-05-10T09:25:07.545Z,25.00
2023-05-10T09:27:34.702Z,23.26
2023-05-10T09:30:01.418Z,23.53
2023-05-10T09:32:41.890Z,24.18
2023-05-10T09:35:09.647Z,23.79
2023-05-10T09:37:36.189Z,26.02
2023-05-10T09:40:05.760Z,28.49
2023-05-10T09:42:32.357Z,27.65
2023-05-10T09:45:05.671Z,27.51
2023-05-10T09:47:36.891Z,26.17
2023-05-10T09:50:05.103Z,26.01
2023-05-10T09:52:46.277Z,25.49
2023-05-10T09:55:13.075Z,25.84
2023-05-10T09:57:39.908Z,24.93
2023-05-10T10:00:06.968Z,25.47
2023-05-10T10:02:40.273Z,25.48
2023-05-10T10:05:07.783Z,24.98
2023-05-10T10:07:35.058Z,22.66
2023-05-10T10:10:01.648Z,21.19
2023-05-10T10:12:28.933Z,21.58
2023-05-10T10:14:56.215Z,21.64
2023-05-10T10:17:22.835Z,22.24
2023-05-10T10:19:49.427Z,21.21
2023-05-10T10:22:16.057Z,21.29
2023-05-10T10:24:42.682Z,20.76
2023-05-10T10:27:16.900Z,19.94
2023-05-10T10:29:54.015Z,19.25
2023-05-10T10:32:27.452Z,19.79
2023-05-10T10:34:55.784Z,20.26
2023-05-10T10:37:22.524Z,19.82
2023-05-10T10:39:49.584Z,20.03
2023-05-10T10:42:36.075Z,19.35
2023-05-10T10:45:15.245Z,19.59
2023-05-10T10:47:44.123Z,19.64
2023-05-10T10:50:11.708Z,19.63
2023-05-10T10:52:39.352Z,20.98
2023-05-10T10:55:06.296Z,21.29
2023-05-10T10:57:34.509Z,20.99
2023-05-10T11:00:19.221Z,20.46
2023-05-10T11:02:49.893Z,20.08
2023-05-10T11:05:28.486Z,19.08
2023-05-10T11:07:56.649Z,17.78
2023-05-10T11:10:24.082Z,17.33
2023-05-10T11:13:01.993Z,16.68
2023-05-10T11:15:32.802Z,17.40
2023-05-10T11:17:59.626Z,17.22
2023-05-10T11:20:34.193Z,15.87
2023-05-10T11:23:13.733Z,15.07
2023-05-10T11:25:45.156Z,15.55
2023-05-10T11:28:12.447Z,14.82
2023-05-10T11:30:40.647Z,13.66
2023-05-10T11:33:07.974Z,13.82
2023-05-10T11:35:40.984Z,13.06
2023-05-10T11:38:10.284Z,12.40
2023-05-10T11:40:37.547Z,12.32
2023-05-10T11:43:04.727Z,12.44
2023-05-10T11:45:34.364Z,12.71
2023-05-10T11:48:01.117Z,12.38
2023-05-10T11:50:28.303Z,12.50
2023-05-10T11:52:56.017Z,11.80
2023-05-10T11:55:23.220Z,11.33
2023-05-10T11:57:52.804Z,11.03
2023-05-10T12:00:19.858Z,10.94
2023-05-10T12:02:46.794Z,10.41
2023-05-10T12:05:14.089Z,9.32
2023-05-10T12:07:40.637Z,10.09
2023-05-10T12:10:18.493Z,9.77
2023-05-10T12:12:46.637Z,9.95
2023-05-10T12:15:23.546Z,9.80
2023-05-10T12:17:51.296Z,10.08
2023-05-10T12:20:19.491Z,10.35
2023-05-10T12:22:47.669Z,10.41
2023-05-10T12:25:14.275Z,9.49
2023-05-10T12:27:40.913Z,9.35
2023-05-10T12:30:07.761Z,9.46
2023-05-10T12:32:41.639Z,8.98
2023-05-10T12:35:09.552Z,9.73
2023-05-10T12:37:39.904Z,9.83
2023-05-10T12:40:07.572Z,9.82
2023-05-10T12:42:34.102Z,8.49
2023-05-10T12:45:00.911Z,8.61
2023-05-10T12:47:27.529Z,8.69
2023-05-10T12:49:54.132Z,8.47
2023-05-10T12:52:20.902Z,8.61
2023-05-10T12:54:47.956Z,8.26
2023-05-10T12:57:14.655Z,8.39
2023-05-10T12:59:41.155Z,8.49
2023-05-10T13:02:07.818Z,8.06
2023-05-10T13:04:34.356Z,8.68
2023-05-10T13:07:01.108Z,8.71
2023-05-10T13:09:30.164Z,9.16
2023-05-10T13:11:56.709Z,9.88
2023-05-10T13:14:23.221Z,9.73
2023-05-10T13:16:49.768Z,9.84
2023-05-10T13:19:18.057Z,11.08
2023-05-10T13:21:45.362Z,10.72
2023-05-10T13:24:14.622Z,10.79
2023-05-10T13:26:41.643Z,11.43
2023-05-10T13:29:08.419Z,11.86
2023-05-10T13:31:35.852Z,11.69
2023-05-10T13:34:03.294Z,11.47
2023-05-10T13:36:29.876Z,11.43
2023-05-10T13:38:56.408Z,11.33
2023-05-10T13:41:22.930Z,11.02
2023-05-10T13:43:50.216Z,11.00
2023-05-10T13:46:16.814Z,10.39
2023-05-10T13:48:43.362Z,9.89
2023-05-10T13:51:10.266Z,9.09
2023-05-10T13:53:37.405Z,8.68
2023-05-10T13:56:04.036Z,9.20
2023-05-10T13:58:30.650Z,8.74
2023-05-10T14:00:57.159Z,8.04
2023-05-10T14:03:23.734Z,7.20
2023-05-10T14:05:50.284Z,7.11
2023-05-10T14:08:16.834Z,7.65
2023-05-10T14:10:43.379Z,6.95
2023-05-10T14:13:09.866Z,7.83
2023-05-10T14:15:36.382Z,7.99
2023-05-10T14:18:03.006Z,8.35
2023-05-10T14:20:29.933Z,8.28
2023-05-10T14:22:56.491Z,9.65
2023-05-10T14:25:23.030Z,9.41
2023-05-10T14:27:49.567Z,10.51
2023-05-10T14:30:16.096Z,10.85
2023-05-10T14:32:42.908Z,11.34
2023-05-10T14:35:12.185Z,11.88
2023-05-10T14:37:39.683Z,11.77
2023-05-10T14:40:07.443Z,11.66
2023-05-10T14:42:33.950Z,11.39
2023-05-10T14:45:00.636Z,11.32
2023-05-10T14:47:27.180Z,12.72
2023-05-10T14:49:53.713Z,11.44
2023-05-10T14:52:20.299Z,11.14
2023-05-10T14:54:47.199Z,12.03
2023-05-10T14:57:13.829Z,11.90
2023-05-10T14:59:40.356Z,10.27
2023-05-10T15:02:09.170Z,9.70
2023-05-10T15:04:36.190Z,9.57
2023-05-10T15:07:03.366Z,9.42
2023-05-10T15:09:29.889Z,8.14
2023-05-10T15:11:56.616Z,9.35
2023-05-10T15:14:23.482Z,9.54
2023-05-10T15:16:50.005Z,8.57
2023-05-10T15:19:16.538Z,7.97
2023-05-10T15:21:45.394Z,8.21
2023-05-10T15:24:11.924Z,6.90
2023-05-10T15:26:38.416Z,6.44
2023-05-10T15:29:04.997Z,6.02
2023-05-10T15:31:31.789Z,5.78
2023-05-10T15:34:01.964Z,5.16
2023-05-10T15:36:28.526Z,4.57
2023-05-10T15:38:55.693Z,4.64
2023-05-10T15:41:22.216Z,4.65
2023-05-10T15:43:48.824Z,4.88
2023-05-10T15:46:15.375Z,5.49
2023-05-10T15:48:42.357Z,5.31
2023-05-10T15:51:08.956Z,4.03
2023-05-10T15:53:36.020Z,4.32
2023-05-10T15:56:02.527Z,5.20
2023-05-10T15:58:29.085Z,5.16
2023-05-10T16:00:55.914Z,6.15
2023-05-10T16:03:22.473Z,6.15
2023-05-10T16:05:49.099Z,5.90
2023-05-10T16:08:15.691Z,6.01
2023-05-10T16:10:42.402Z,6.62
2023-05-10T16:13:08.988Z,6.99
2023-05-10T16:15:35.495Z,7.71
2023-05-10T16:18:02.178Z,7.71
2023-05-10T16:20:29.999Z,7.36
2023-05-10T16:22:56.800Z,7.64
2023-05-10T16:25:23.314Z,8.11
2023-05-10T16:27:50.945Z,8.57
2023-05-10T16:30:17.461Z,8.40
2023-05-10T16:32:44.293Z,8.76
2023-05-10T16:35:10.951Z,10.57
2023-05-10T16:37:37.579Z,11.48
2023-05-10T16:40:04.540Z,10.62
2023-05-10T16:42:31.251Z,10.36
2023-05-10T16:44:57.884Z,10.53
2023-05-10T16:47:26.832Z,10.87
2023-05-10T16:49:53.512Z,10.88
2023-05-10T16:52:20.069Z,10.62
2023-05-10T16:54:46.684Z,11.39
2023-05-10T16:57:13.211Z,11.60
2023-05-10T16:59:39.729Z,11.90
2023-05-10T17:02:06.812Z,11.12
2023-05-10T17:04:33.333Z,11.37
2023-05-10T17:06:59.878Z,11.19
2023-05-10T17:09:26.455Z,11.16
2023-05-10T17:11:53.106Z,10.85
2023-05-10T17:14:19.648Z,11.19
2023-05-10T17:16:47.897Z,10.91
2023-05-10T17:19:14.673Z,11.02
2023-05-10T17:21:41.205Z,11.15
2023-05-10T17:24:07.804Z,10.36
2023-05-10T17:26:34.568Z,10.39
2023-05-10T17:29:01.189Z,10.83
2023-05-10T17:31:27.789Z,10.72
2023-05-10T17:33:54.454Z,10.54
2023-05-10T17:36:21.080Z,11.33
2023-05-10T17:38:47.570Z,11.76
2023-05-10T17:41:14.537Z,11.69
2023-05-10T17:43:41.129Z,11.40
2023-05-10T17:46:07.804Z,11.50
2023-05-10T17:48:36.842Z,11.83
2023-05-10T17:51:04.257Z,11.18
2023-05-10T17:53:30.989Z,12.05
2023-05-10T17:55:58.969Z,11.53
2023-05-10T17:58:25.714Z,11.94
2023-05-10T18:00:52.534Z,11.90
2023-05-10T18:03:19.380Z,12.22
2023-05-10T18:05:47.102Z,11.90
2023-05-10T18:08:14.134Z,11.88
2023-05-10T18:10:41.599Z,11.81
2023-05-10T18:13:08.871Z,13.47
2023-05-10T18:15:35.680Z,27.12
2023-05-10T18:18:03.229Z,15.10
2023-05-10T18:20:30.370Z,13.09
2023-05-10T18:22:58.364Z,13.58
2023-05-10T18:25:25.525Z,11.88
2023-05-10T18:27:52.702Z,13.92
2023-05-10T18:30:19.352Z,17.83
2023-05-10T18:32:46.063Z,13.18
2023-05-10T18:35:12.740Z,12.50
2023-05-10T18:37:39.426Z,11.83
2023-05-10T18:40:09.503Z,12.53
2023-05-10T18:42:36.267Z,12.48
2023-05-10T18:45:03.472Z,12.27
2023-05-10T18:47:30.104Z,11.52
2023-05-10T18:49:57.165Z,10.95
2023-05-10T18:52:24.164Z,11.89
2023-05-10T18:54:50.860Z,12.31
2023-05-10T18:57:17.514Z,12.61
2023-05-10T18:59:44.134Z,12.50
2023-05-10T19:02:10.904Z,12.27
2023-05-10T19:04:37.559Z,12.20
2023-05-10T19:07:04.204Z,11.14
2023-05-10T19:09:30.819Z,11.23
2023-05-10T19:11:57.412Z,11.35
2023-05-10T19:14:25.377Z,12.73
2023-05-10T19:16:52.240Z,12.80
2023-05-10T19:19:18.811Z,15.48
2023-05-10T19:21:48.163Z,15.11
2023-05-10T19:24:14.964Z,19.58
2023-05-10T19:26:41.509Z,24.55
2023-05-10T19:29:08.118Z,25.42
2023-05-10T19:31:35.387Z,24.39
2023-05-10T19:34:04.287Z,25.14
2023-05-10T19:36:31.466Z,26.83
2023-05-10T19:38:58.164Z,25.76
2023-05-10T19:41:24.809Z,24.24
2023-05-10T19:43:51.461Z,22.48
2023-05-10T19:46:20.128Z,23.20
2023-05-10T19:48:48.742Z,21.57
2023-05-10T19:51:15.840Z,19.29
2023-05-10T19:53:44.722Z,16.90
2023-05-10T19:56:11.518Z,15.18
2023-05-10T19:58:38.629Z,15.94
2023-05-10T20:01:08.335Z,16.59
2023-05-10T20:03:35.460Z,15.38
2023-05-10T20:06:03.877Z,15.12
2023-05-10T20:08:30.978Z,14.95
2023-05-10T20:10:58.992Z,16.14
2023-05-10T20:13:25.779Z,16.09
2023-05-10T20:15:55.279Z,16.79
2023-05-10T20:18:22.263Z,15.73
2023-05-10T20:20:52.727Z,15.26
2023-05-10T20:23:19.275Z,13.77
2023-05-10T20:25:46.030Z,15.16
2023-05-10T20:28:13.149Z,15.98
2023-05-10T20:30:39.786Z,15.39
2023-05-10T20:33:06.424Z,15.27
2023-05-10T20:35:34.213Z,14.94
2023-05-10T20:38:02.044Z,14.28
2023-05-10T20:40:28.608Z,14.83
2023-05-10T20:42:55.236Z,13.85
2023-05-10T20:45:22.432Z,13.25
2023-05-10T20:47:49.188Z,13.94
2023-05-10T20:50:16.183Z,13.60
2023-05-10T20:52:42.914Z,13.78
2023-05-10T20:55:09.767Z,11.94
2023-05-10T20:57:36.663Z,10.75
2023-05-10T21:00:03.757Z,11.36
2023-05-10T21:02:30.428Z,11.45
2023-05-10T21:04:57.881Z,11.59
2023-05-10T21:07:25.064Z,11.60
2023-05-10T21:09:51.841Z,11.54
2023-05-10T21:12:18.384Z,10.70
2023-05-10T21:14:46.873Z,10.27
2023-05-10T21:17:13.738Z,11.04
2023-05-10T21:19:40.413Z,11.85
2023-05-10T21:22:07.548Z,11.62
2023-05-10T21:24:35.055Z,11.68
2023-05-10T21:27:01.714Z,10.69
2023-05-10T21:29:28.599Z,11.69
2023-05-10T21:31:55.524Z,11.85
2023-05-10T21:34:22.194Z,11.49
2023-05-10T21:36:48.820Z,12.95
2023-05-10T21:39:15.386Z,12.31
2023-05-10T21:41:41.908Z,12.09
2023-05-10T21:44:08.466Z,11.23
2023-05-10T21:46:35.004Z,12.89
2023-05-10T21:49:01.554Z,11.39
2023-05-10T21:51:29.194Z,11.30
2023-05-10T21:53:55.989Z,12.03
2023-05-10T21:56:22.939Z,12.26
2023-05-10T21:58:49.618Z,12.59
2023-05-10T22:01:17.981Z,13.25
2023-05-10T22:03:44.776Z,12.66
2023-05-10T22:06:11.402Z,12.64
2023-05-10T22:08:37.986Z,13.51
2023-05-10T22:11:04.770Z,12.71
2023-05-10T22:13:31.451Z,12.79
2023-05-10T22:15:58.066Z,11.42
2023-05-10T22:18:24.681Z,12.24
2023-05-10T22:20:51.246Z,12.88
2023-05-10T22:23:17.951Z,11.56
2023-05-10T22:25:44.533Z,13.25
2023-05-10T22:28:11.133Z,12.35
2023-05-10T22:30:37.944Z,13.96
2023-05-10T22:33:04.571Z,13.79
2023-05-10T22:35:31.444Z,14.37
2023-05-10T22:37:58.016Z,14.73
2023-05-10T22:40:24.662Z,13.72
2023-05-10T22:42:51.913Z,13.53
2023-05-10T22:45:18.493Z,13.88
2023-05-10T22:47:45.131Z,14.81
2023-05-10T22:50:11.894Z,13.74
2023-05-10T22:52:39.375Z,13.90
2023-05-10T22:55:06.900Z,14.90
2023-05-10T22:57:33.791Z,13.29
2023-05-10T23:00:00.474Z,13.81
2023-05-10T23:02:27.255Z,14.10
2023-05-10T23:04:53.985Z,12.05
2023-05-10T23:07:20.563Z,13.98
2023-05-10T23:09:47.140Z,13.71
2023-05-10T23:12:13.739Z,13.69
2023-05-10T23:14:41.488Z,14.90
2023-05-10T23:17:08.399Z,14.97
2023-05-10T23:19:35.057Z,15.36
2023-05-10T23:22:01.879Z,14.53
2023-05-10T23:24:29.006Z,14.90
2023-05-10T23:26:55.621Z,13.82
2023-05-10T23:29:23.828Z,14.51
2023-05-10T23:31:51.199Z,13.37
2023-05-10T23:34:18.153Z,14.00
2023-05-10T23:36:44.745Z,13.02
2023-05-10T23:39:11.770Z,15.65
2023-05-10T23:41:38.468Z,17.09
2023-05-10T23:44:05.282Z,19.54
2023-05-10T23:46:31.875Z,19.62
2023-05-10T23:48:58.496Z,18.14
2023-05-10T23:51:25.121Z,18.77
2023-05-10T23:53:51.714Z,16.67
2023-05-10T23:56:18.415Z,17.01
2023-05-10T23:58:46.262Z,15.95
